createdAt,value
2023-04-16T00:00:59.797Z,-24.4
2023-04-16T00:06:19.489Z,-28.2
2023-04-16T00:11:39.040Z,-25
2023-04-16T00:16:57.965Z,-25
2023-04-16T00:22:17.642Z,-28
2023-04-16T00:27:37.397Z,-24.5
2023-04-16T00:32:57.043Z,-24.6
2023-04-16T00:38:15.950Z,-24.4
2023-04-16T00:43:35.240Z,-24.6
2023-04-16T00:48:54.701Z,-24.6
2023-04-16T00:54:14.175Z,-24.5
2023-04-16T00:59:33.901Z,-28.8
2023-04-16T01:04:53.334Z,-24.6
2023-04-16T01:10:13.020Z,-24.9
2023-04-16T01:15:32.588Z,-25
2023-04-16T01:20:51.500Z,-24.3
2023-04-16T01:26:11.021Z,-24.2
2023-04-16T01:31:30.058Z,-25
2023-04-16T01:36:49.364Z,-25
2023-04-16T01:42:08.746Z,-25
2023-04-16T01:47:28.446Z,-24.7
2023-04-16T01:58:07.012Z,-25
2023-04-16T02:03:26.179Z,-24.7
2023-04-16T02:14:04.266Z,-24.5
2023-04-16T02:19:23.522Z,-24.5
2023-04-16T02:24:42.717Z,-25
2023-04-16T02:30:02.373Z,-24.6
2023-04-16T02:35:22.207Z,-25.4
2023-04-16T02:46:00.534Z,-24.9
2023-04-16T02:51:20.258Z,-24.4
2023-04-16T02:56:39.809Z,-24.6
2023-04-16T03:01:58.954Z,-24.7
2023-04-16T03:07:17.960Z,-24.5
2023-04-16T03:12:37.139Z,-24.5
2023-04-16T03:17:56.474Z,-24.4
2023-04-16T03:28:35.324Z,-24.9
2023-04-16T03:33:54.846Z,-24.5
2023-04-16T03:39:14.099Z,-24.3
2023-04-16T03:44:32.928Z,-25
2023-04-16T03:49:51.950Z,-28.1
2023-04-16T03:55:11.650Z,-24.7
2023-04-16T04:00:30.919Z,-25
2023-04-16T04:05:50.438Z,-24.6
2023-04-16T04:11:09.343Z,-24.7
2023-04-16T04:16:28.198Z,-24.6
2023-04-16T04:21:47.083Z,-24.4
2023-04-16T04:27:06.258Z,-24.7
2023-04-16T04:32:26.046Z,-24.7
2023-04-16T04:37:45.211Z,-24.5
2023-04-16T04:43:04.248Z,-24.8
2023-04-16T04:48:23.992Z,-29.6
2023-04-16T04:53:43.218Z,-24.9
2023-04-16T04:59:02.616Z,-25.4
2023-04-16T05:04:22.009Z,-25.3
2023-04-16T05:09:40.764Z,-25.3
2023-04-16T05:20:19.605Z,-24.9
2023-04-16T05:25:38.697Z,-23.3
2023-04-16T05:30:58.299Z,-20.4
2023-04-16T05:36:17.268Z,-20.6
2023-04-16T05:41:36.929Z,-18.6
2023-04-16T05:52:14.810Z,-10.6
2023-04-16T05:57:33.794Z,-9.7
2023-04-16T06:02:53.389Z,-2.4
2023-04-16T06:08:12.719Z,-1.5
2023-04-16T06:13:31.781Z,-10.9
2023-04-16T06:18:50.983Z,-10.9
2023-04-16T06:24:10.274Z,-13.4
2023-04-16T06:34:48.948Z,-15.6
2023-04-16T06:40:08.291Z,-17.1
2023-04-16T06:45:27.114Z,-16.6
2023-04-16T06:50:46.772Z,-9
2023-04-16T06:56:05.498Z,-9.8
2023-04-16T07:01:24.683Z,-17.79
2023-04-16T07:06:43.710Z,-7.8
2023-04-16T07:12:02.741Z,-0.3
2023-04-16T07:17:21.569Z,1.8
2023-04-16T07:22:40.986Z,5.9
2023-04-16T07:28:00.058Z,32.4
2023-04-16T07:33:19.611Z,44.1
2023-04-16T07:38:38.397Z,41.6
2023-04-16T07:43:57.454Z,62.8
2023-04-16T07:49:17.076Z,40.5
2023-04-16T07:54:36.149Z,21.3
2023-04-16T07:59:55.278Z,14.7
2023-04-16T08:10:33.653Z,12.6
2023-04-16T08:15:53.038Z,18.1
2023-04-16T08:16:17.338Z,22.3
2023-04-16T08:26:57.038Z,27.2
2023-04-16T08:32:15.107Z,28.9
2023-04-16T08:37:34.518Z,28.5
2023-04-16T08:42:54.007Z,61.1
2023-04-16T08:48:12.941Z,81.69
2023-04-16T08:53:31.853Z,34.09
2023-04-16T08:58:50.727Z,15.3
2023-04-16T09:04:09.985Z,28.1
2023-04-16T09:09:29.368Z,29.2
2023-04-16T09:14:48.225Z,23.9
2023-04-16T09:20:07.368Z,21
2023-04-16T09:25:26.631Z,19.29
2023-04-16T09:30:45.907Z,20.5
2023-04-16T09:36:05.384Z,34.9
2023-04-16T09:41:24.871Z,52.9
2023-04-16T09:46:44.440Z,38.4
2023-04-16T09:52:03.970Z,58.9
2023-04-16T09:57:23.040Z,48.8
2023-04-16T10:08:01.016Z,38.3
2023-04-16T10:13:20.224Z,29.6
2023-04-16T10:18:39.597Z,25.3
2023-04-16T10:23:59.008Z,11
2023-04-16T10:29:18.682Z,13.7
2023-04-16T10:34:37.909Z,26
2023-04-16T10:39:57.037Z,45.7
2023-04-16T10:45:16.251Z,34.3
2023-04-16T10:50:35.290Z,45.6
2023-04-16T10:55:54.440Z,41.3
2023-04-16T11:01:13.820Z,29.3
2023-04-16T11:06:32.713Z,48.7
2023-04-16T11:11:52.297Z,49
2023-04-16T11:17:11.199Z,30.7
2023-04-16T11:22:30.468Z,81.5
2023-04-16T11:27:49.723Z,51.6
2023-04-16T11:33:08.672Z,48.1
2023-04-16T11:38:27.553Z,75.9
2023-04-16T11:43:47.111Z,68.3
2023-04-16T11:49:06.291Z,68.3
2023-04-16T11:54:25.486Z,46.3
2023-04-16T12:00:01.250Z,80.69
2023-04-16T12:05:03.388Z,83.4
2023-04-16T12:10:22.817Z,71.9
2023-04-16T12:15:41.878Z,91.1
2023-04-16T12:21:00.688Z,86.6
2023-04-16T12:26:20.248Z,162.8
2023-04-16T12:31:39.762Z,-25.3
2023-04-16T12:36:58.634Z,206.6
2023-04-16T12:42:18.263Z,180.1
2023-04-16T12:47:37.527Z,91
2023-04-16T12:52:56.230Z,67.4
2023-04-16T12:58:15.771Z,51.4
2023-04-16T13:03:34.673Z,33.09
2023-04-16T13:08:53.498Z,55.8
2023-04-16T13:14:12.580Z,99
2023-04-16T13:19:31.450Z,-24.6
2023-04-16T13:24:50.542Z,43.6
2023-04-16T13:30:09.879Z,43
2023-04-16T13:35:29.597Z,36.2
2023-04-16T13:40:48.584Z,28.6
2023-04-16T13:46:08.339Z,13.9
2023-04-16T13:51:27.660Z,7.3
2023-04-16T13:56:47.249Z,26.2
2023-04-16T14:02:06.065Z,32.59
2023-04-16T14:07:24.960Z,7.9
2023-04-16T14:12:44.349Z,-1.9
2023-04-16T14:18:03.731Z,4.19
2023-04-16T14:23:22.909Z,31.1
2023-04-16T14:28:42.514Z,-24.3
2023-04-16T14:34:01.276Z,13.2
2023-04-16T14:39:20.885Z,4.69
2023-04-16T14:44:39.914Z,6
2023-04-16T14:49:59.489Z,4
2023-04-16T14:55:18.635Z,-2.5
2023-04-16T15:00:37.646Z,9.5
2023-04-16T15:05:57.188Z,32.5
2023-04-16T15:11:16.889Z,18
2023-04-16T15:16:36.291Z,14.3
2023-04-16T15:21:55.304Z,5.7
2023-04-16T15:32:33.058Z,7.1
2023-04-16T15:37:52.466Z,0.7
2023-04-16T15:43:11.564Z,2.09
2023-04-16T15:48:30.842Z,-1.9
2023-04-16T15:53:50.513Z,-4.9
2023-04-16T15:59:10.280Z,-10.4
2023-04-16T16:04:29.137Z,-14.4
2023-04-16T16:09:48.187Z,-12.7
2023-04-16T16:15:07.379Z,-9.3
2023-04-16T16:20:26.462Z,-9
2023-04-16T16:25:45.863Z,-13.5
2023-04-16T16:31:05.435Z,-13.6
2023-04-16T16:36:24.681Z,-10.1
2023-04-16T16:41:44.100Z,-2.2
2023-04-16T16:47:03.112Z,8.39
2023-04-16T16:52:22.761Z,16.5
2023-04-16T16:57:41.652Z,13
2023-04-16T17:03:00.763Z,-0.1
2023-04-16T17:13:38.143Z,-13.8
2023-04-16T17:18:57.623Z,-15.1
2023-04-16T17:24:17.187Z,-16.7
2023-04-16T17:29:36.491Z,-18.6
2023-04-16T17:34:57.233Z,-17.79
2023-04-16T17:40:16.412Z,-18
2023-04-16T17:45:34.878Z,-21.4
2023-04-16T17:50:53.550Z,-24.4
2023-04-16T17:56:12.134Z,-25.6
2023-04-16T18:01:31.907Z,-25.5
2023-04-16T18:06:50.722Z,-25.8
2023-04-16T18:12:10.265Z,-24.7
2023-04-16T18:17:29.168Z,-24.8
2023-04-16T18:22:48.783Z,-25.1
2023-04-16T18:28:07.956Z,-24.7
2023-04-16T18:38:57.445Z,-24.7
2023-04-16T18:44:06.103Z,-24.9
2023-04-16T18:49:25.766Z,-25.2
2023-04-16T18:54:45.394Z,-24.7
2023-04-16T19:05:23.792Z,-24.7
2023-04-16T19:10:43.507Z,-25
2023-04-16T19:16:03.031Z,-24.7
2023-04-16T19:21:22.060Z,-24.9
2023-04-16T19:26:41.727Z,-24.7
2023-04-16T19:32:01.444Z,-24.2
2023-04-16T19:37:20.609Z,-25.1
2023-04-16T19:42:39.956Z,-24.4
2023-04-16T19:47:59.250Z,-24.7
2023-04-16T19:53:18.067Z,-24.6
2023-04-16T19:58:37.658Z,-24.7
2023-04-16T20:03:57.003Z,-24.8
2023-04-16T20:09:16.423Z,-25.1
2023-04-16T20:19:55.003Z,-24.2
2023-04-16T20:25:14.348Z,-24.5
2023-04-16T20:30:33.727Z,-24.8
2023-04-16T20:35:53.214Z,-24.6
2023-04-16T20:41:11.960Z,-25.1
2023-04-16T20:46:31.278Z,-24.3
2023-04-16T20:51:50.352Z,-24.7
2023-04-16T20:57:09.003Z,-24.6
2023-04-16T21:02:28.008Z,-24.8
2023-04-16T21:07:47.376Z,-24.5
2023-04-16T21:13:06.974Z,-25.8
2023-04-16T21:18:26.488Z,-24.6
2023-04-16T21:23:45.402Z,-24.8
2023-04-16T21:29:04.377Z,-25.1
2023-04-16T21:39:42.670Z,-24.7
2023-04-16T21:45:02.126Z,-24.6
2023-04-16T21:50:20.862Z,-28.8
2023-04-16T21:55:40.044Z,-24.8
2023-04-16T22:00:58.748Z,-24.9
2023-04-16T22:06:18.002Z,-24.8
2023-04-16T22:11:37.562Z,-24.6
2023-04-16T22:16:56.645Z,-24.5
2023-04-16T22:22:15.270Z,-24.6
2023-04-16T22:27:34.667Z,-24.5
2023-04-16T22:38:13.401Z,-24.3
2023-04-16T22:43:33.346Z,-28.9
2023-04-16T22:48:51.940Z,-24.8
2023-04-16T22:54:12.048Z,-25.2
2023-04-16T22:59:30.085Z,-25.3
2023-04-16T23:04:48.923Z,-25.1
2023-04-16T23:10:07.785Z,-24.4
2023-04-16T23:20:45.598Z,-24.6
2023-04-16T23:26:04.777Z,-24.2
2023-04-16T23:31:24.241Z,-25.5
2023-04-16T23:36:43.184Z,-24.8
2023-04-16T23:42:02.343Z,-24.7
2023-04-16T23:47:30.340Z,-24.7
2023-04-16T23:52:40.751Z,-24.5
2023-04-16T23:58:00.358Z,-24.4
